createdAt,value
2018-12-14T00:01:02.912Z,14.75
2018-12-14T00:03:35.639Z,15.48
2018-12-14T00:06:08.598Z,13.75
2018-12-14T00:08:39.291Z,15.60
2018-12-14T00:11:09.981Z,13.98
2018-12-14T00:13:40.436Z,16.95
2018-12-14T00:16:10.902Z,16.23
2018-12-14T00:18:41.404Z,14.53
2018-12-14T00:21:11.957Z,15.65
2018-12-14T00:23:42.492Z,15.98
2018-12-14T00:26:13.334Z,16.77
2018-12-14T00:28:43.891Z,16.15
2018-12-14T00:31:14.640Z,17.98
2018-12-14T00:33:45.182Z,16.42
2018-12-14T00:36:15.978Z,15.72
2018-12-14T00:38:47.511Z,13.45
2018-12-14T00:41:18.188Z,13.10
2018-12-14T00:43:48.753Z,12.58
2018-12-14T00:46:19.496Z,15.03
2018-12-14T00:48:49.970Z,13.45
2018-12-14T00:51:20.390Z,12.65
2018-12-14T00:53:50.997Z,12.73
2018-12-14T00:56:21.556Z,13.40
2018-12-14T00:58:52.101Z,12.40
2018-12-14T01:01:22.859Z,12.98
2018-12-14T01:03:53.472Z,12.85
2018-12-14T01:06:24.360Z,12.98
2018-12-14T01:08:54.914Z,12.05
2018-12-14T01:11:25.502Z,12.25
2018-12-14T01:13:57.092Z,14.28
2018-12-14T01:19:35.980Z,11.78
2018-12-14T01:22:06.575Z,14.18
2018-12-14T01:24:37.401Z,14.18
2018-12-14T01:27:08.031Z,12.98
2018-12-14T01:29:38.562Z,13.83
2018-12-14T01:32:09.097Z,14.63
2018-12-14T01:34:39.610Z,12.90
2018-12-14T01:37:10.258Z,12.40
2018-12-14T01:39:40.926Z,14.50
2018-12-14T01:42:11.785Z,13.80
2018-12-14T01:44:42.495Z,11.25
2018-12-14T01:47:13.347Z,12.13
2018-12-14T01:49:43.878Z,13.88
2018-12-14T01:52:14.618Z,11.60
2018-12-14T01:54:45.021Z,16.30
2018-12-14T01:57:15.793Z,15.70
2018-12-14T01:59:46.418Z,15.18
2018-12-14T02:02:17.215Z,15.35
2018-12-14T02:04:47.741Z,13.13
2018-12-14T02:07:18.489Z,12.10
2018-12-14T02:09:49.301Z,11.75
2018-12-14T02:12:19.823Z,11.97
2018-12-14T02:14:50.815Z,11.53
2018-12-14T02:17:21.516Z,12.80
2018-12-14T02:19:52.024Z,10.80
2018-12-14T02:22:23.020Z,11.60
2018-12-14T02:24:53.471Z,11.33
2018-12-14T02:27:24.219Z,12.05
2018-12-14T02:29:54.627Z,18.90
2018-12-14T02:32:25.118Z,13.58
2018-12-14T02:34:55.697Z,12.43
2018-12-14T02:37:26.211Z,16.77
2018-12-14T02:39:56.969Z,16.55
2018-12-14T02:42:27.510Z,14.33
2018-12-14T02:44:58.176Z,29.92
2018-12-14T02:47:28.849Z,37.08
2018-12-14T02:49:59.568Z,74.32
2018-12-14T02:52:30.426Z,27.13
2018-12-14T02:55:01.087Z,54.55
2018-12-14T02:57:31.656Z,62.10
2018-12-14T03:00:02.323Z,29.37
2018-12-14T03:02:34.096Z,48.15
2018-12-14T03:05:04.646Z,51.13
2018-12-14T03:07:35.184Z,36.50
2018-12-14T03:10:06.381Z,19.20
2018-12-14T03:12:37.214Z,26.48
2018-12-14T03:15:08.112Z,22.98
2018-12-14T03:17:38.848Z,51.55
2018-12-14T03:20:10.202Z,66.15
2018-12-14T03:22:40.917Z,32.58
2018-12-14T03:25:11.650Z,34.70
2018-12-14T03:27:42.357Z,44.27
2018-12-14T03:30:13.071Z,43.48
2018-12-14T03:32:43.474Z,40.17
2018-12-14T03:35:14.532Z,45.73
2018-12-14T03:37:44.930Z,25.90
2018-12-14T03:40:15.610Z,10.88
2018-12-14T03:42:46.605Z,10.63
2018-12-14T03:45:16.961Z,11.85
2018-12-14T03:47:47.461Z,14.07
2018-12-14T03:50:18.191Z,18.27
2018-12-14T03:52:49.097Z,17.30
2018-12-14T03:55:20.211Z,15.48
2018-12-14T03:57:50.966Z,28.02
2018-12-14T04:00:21.819Z,25.77
2018-12-14T04:02:52.859Z,18.42
2018-12-14T04:05:23.992Z,18.35
2018-12-14T04:07:54.577Z,32.10
2018-12-14T04:10:25.341Z,24.15
2018-12-14T04:12:55.790Z,19.37
2018-12-14T04:15:26.306Z,19.77
2018-12-14T04:17:56.985Z,13.18
2018-12-14T04:20:27.715Z,13.18
2018-12-14T04:22:58.443Z,10.82
2018-12-14T04:25:29.029Z,10.48
2018-12-14T04:27:59.734Z,11.90
2018-12-14T04:30:30.610Z,12.37
2018-12-14T04:33:01.390Z,13.13
2018-12-14T04:35:32.206Z,12.20
2018-12-14T04:38:04.222Z,11.25
2018-12-14T04:40:34.902Z,10.40
2018-12-14T04:43:05.433Z,10.65
2018-12-14T04:45:36.669Z,10.90
2018-12-14T04:48:07.248Z,11.10
2018-12-14T04:50:38.130Z,10.78
2018-12-14T04:53:08.621Z,11.83
2018-12-14T04:55:39.101Z,10.13
2018-12-14T04:58:09.439Z,11.38
2018-12-14T05:00:39.812Z,11.83
2018-12-14T05:03:10.268Z,12.60
2018-12-14T05:05:41.026Z,16.93
2018-12-14T05:08:12.723Z,19.17
2018-12-14T05:10:43.726Z,16.87
2018-12-14T05:13:14.528Z,15.83
2018-12-14T05:15:46.420Z,19.50
2018-12-14T05:18:17.346Z,19.85
2018-12-14T05:20:48.073Z,21.70
2018-12-14T05:23:18.786Z,18.52
2018-12-14T05:25:49.318Z,21.12
2018-12-14T05:28:20.181Z,15.98
2018-12-14T05:30:51.017Z,13.88
2018-12-14T05:33:21.568Z,12.60
2018-12-14T05:35:52.020Z,16.90
2018-12-14T05:38:22.714Z,13.38
2018-12-14T05:40:53.638Z,15.00
2018-12-14T05:43:24.130Z,13.08
2018-12-14T05:45:54.833Z,13.00
2018-12-14T05:48:25.376Z,13.90
2018-12-14T05:50:56.002Z,21.77
2018-12-14T05:53:26.662Z,20.75
2018-12-14T05:55:57.335Z,30.45
2018-12-14T05:58:27.947Z,40.33
2018-12-14T06:00:58.722Z,28.30
2018-12-14T06:03:29.251Z,17.42
2018-12-14T06:05:59.840Z,22.40
2018-12-14T06:08:30.539Z,23.50
2018-12-14T06:11:01.050Z,30.65
2018-12-14T06:13:31.868Z,24.12
2018-12-14T06:16:02.988Z,18.42
2018-12-14T06:18:33.474Z,11.53
2018-12-14T06:21:04.082Z,12.28
2018-12-14T06:23:34.614Z,13.43
2018-12-14T06:26:05.364Z,12.00
2018-12-14T06:28:35.968Z,13.80
2018-12-14T06:31:06.780Z,10.72
2018-12-14T06:33:37.696Z,10.05
2018-12-14T06:36:08.238Z,12.23
2018-12-14T06:38:39.010Z,13.13
2018-12-14T06:41:09.630Z,17.42
2018-12-14T06:43:40.573Z,27.27
2018-12-14T06:46:11.159Z,35.28
2018-12-14T06:48:41.678Z,29.72
2018-12-14T06:51:12.428Z,23.65
2018-12-14T06:53:43.243Z,22.73
2018-12-14T06:56:14.040Z,14.30
2018-12-14T06:58:44.754Z,13.78
2018-12-14T07:01:15.369Z,17.67
2018-12-14T07:03:46.077Z,21.57
2018-12-14T07:06:16.666Z,21.62
2018-12-14T07:08:47.456Z,36.33
2018-12-14T07:11:18.374Z,22.55
2018-12-14T07:13:48.908Z,20.70
2018-12-14T07:16:19.728Z,22.98
2018-12-14T07:18:50.321Z,34.53
2018-12-14T07:21:20.992Z,39.60
2018-12-14T07:23:51.589Z,33.88
2018-12-14T07:26:22.613Z,39.25
2018-12-14T07:28:53.405Z,35.60
2018-12-14T07:31:24.109Z,31.07
2018-12-14T07:33:55.012Z,26.95
2018-12-14T07:36:25.429Z,23.07
2018-12-14T07:38:55.992Z,36.00
2018-12-14T07:41:28.718Z,40.23
2018-12-14T07:43:59.183Z,38.02
2018-12-14T07:46:30.078Z,29.15
2018-12-14T07:49:00.787Z,21.17
2018-12-14T07:51:31.531Z,19.40
2018-12-14T07:54:03.395Z,34.70
2018-12-14T07:56:34.232Z,71.82
2018-12-14T07:59:04.868Z,36.00
2018-12-14T08:01:35.616Z,23.62
2018-12-14T08:04:06.269Z,16.07
2018-12-14T08:06:37.376Z,14.07
2018-12-14T08:09:08.779Z,13.55
2018-12-14T08:11:39.432Z,12.80
2018-12-14T08:14:10.012Z,16.52
2018-12-14T08:16:40.912Z,16.75
2018-12-14T08:19:11.562Z,17.07
2018-12-14T08:21:42.118Z,15.65
2018-12-14T08:24:12.893Z,16.57
2018-12-14T08:26:43.606Z,12.33
2018-12-14T08:29:14.314Z,33.93
2018-12-14T08:31:44.893Z,28.62
2018-12-14T08:34:15.580Z,43.90
2018-12-14T08:36:46.550Z,16.00
2018-12-14T08:39:17.553Z,30.52
2018-12-14T08:41:48.212Z,33.08
2018-12-14T08:44:21.603Z,16.60
2018-12-14T08:46:52.874Z,15.53
2018-12-14T08:49:24.153Z,14.93
2018-12-14T08:51:55.080Z,16.25
2018-12-14T08:54:25.690Z,17.73
2018-12-14T08:56:56.477Z,14.05
2018-12-14T08:59:27.292Z,16.15
2018-12-14T09:01:58.151Z,16.02
2018-12-14T09:04:28.745Z,20.68
2018-12-14T09:06:59.307Z,19.40
2018-12-14T09:09:30.022Z,18.73
2018-12-14T09:12:00.786Z,20.10
2018-12-14T09:14:31.410Z,23.25
2018-12-14T09:17:02.206Z,23.73
2018-12-14T09:19:32.653Z,43.17
2018-12-14T09:22:03.124Z,32.45
2018-12-14T09:24:33.720Z,16.05
2018-12-14T09:27:04.411Z,14.75
2018-12-14T09:29:35.368Z,12.60
2018-12-14T09:32:06.091Z,15.23
2018-12-14T09:34:37.384Z,28.90
2018-12-14T09:37:09.678Z,15.18
2018-12-14T09:39:40.944Z,11.30
2018-12-14T09:42:11.797Z,11.75
2018-12-14T09:44:42.502Z,11.90
2018-12-14T09:47:13.060Z,30.95
2018-12-14T09:49:43.906Z,26.00
2018-12-14T09:52:14.579Z,14.43
2018-12-14T09:54:45.385Z,14.97
2018-12-14T09:57:16.219Z,14.17
2018-12-14T09:59:46.710Z,30.47
2018-12-14T10:02:17.480Z,27.22
2018-12-14T10:04:48.520Z,14.53
2018-12-14T10:07:18.930Z,13.13
2018-12-14T10:09:49.430Z,13.27
2018-12-14T10:12:19.870Z,13.23
2018-12-14T10:14:50.780Z,12.33
2018-12-14T10:17:21.647Z,14.00
2018-12-14T10:19:52.227Z,13.28
2018-12-14T10:22:22.947Z,12.87
2018-12-14T10:24:53.592Z,11.48
2018-12-14T10:27:24.463Z,12.60
2018-12-14T10:29:55.119Z,14.55
2018-12-14T10:32:26.162Z,18.40
2018-12-14T10:34:58.430Z,20.45
2018-12-14T10:37:29.324Z,23.33
2018-12-14T10:39:59.816Z,18.47
2018-12-14T10:42:30.684Z,22.63
2018-12-14T10:45:02.133Z,21.68
2018-12-14T10:47:33.055Z,17.60
2018-12-14T10:50:04.111Z,18.50
2018-12-14T10:52:34.741Z,18.05
2018-12-14T10:55:06.521Z,16.25
2018-12-14T10:57:37.700Z,17.90
2018-12-14T11:00:16.880Z,20.25
2018-12-14T11:02:47.598Z,19.73
2018-12-14T11:05:18.150Z,17.83
2018-12-14T11:07:49.047Z,39.80
2018-12-14T11:10:20.101Z,34.05
2018-12-14T11:12:50.696Z,39.47
2018-12-14T11:15:21.209Z,31.90
2018-12-14T11:17:51.958Z,59.03
2018-12-14T11:20:22.811Z,57.73
2018-12-14T11:22:53.407Z,49.73
2018-12-14T11:25:24.180Z,22.90
2018-12-14T11:27:54.550Z,32.53
2018-12-14T11:30:25.303Z,32.87
2018-12-14T11:32:55.957Z,33.40
2018-12-14T11:35:26.635Z,43.03
2018-12-14T11:37:57.313Z,24.17
2018-12-14T11:40:28.009Z,20.52
2018-12-14T11:42:58.965Z,22.40
2018-12-14T11:45:29.715Z,33.87
2018-12-14T11:48:00.994Z,43.83
2018-12-14T11:50:31.665Z,30.67
2018-12-14T11:53:02.212Z,26.27
2018-12-14T11:55:32.897Z,24.70
2018-12-14T11:58:03.472Z,24.23
2018-12-14T12:00:34.117Z,20.90
2018-12-14T12:03:04.780Z,27.60
2018-12-14T12:05:35.583Z,25.67
2018-12-14T12:08:06.725Z,25.70
2018-12-14T12:10:37.730Z,24.20
2018-12-14T12:13:08.301Z,29.40
2018-12-14T12:15:40.020Z,23.30
2018-12-14T12:18:11.863Z,25.55
2018-12-14T12:20:42.688Z,24.18
2018-12-14T12:23:13.277Z,23.63
2018-12-14T12:25:43.805Z,25.40
2018-12-14T12:28:17.331Z,42.03
2018-12-14T12:30:48.785Z,33.53
2018-12-14T12:33:19.457Z,24.67
2018-12-14T12:35:50.501Z,23.77
2018-12-14T12:38:21.039Z,20.57
2018-12-14T12:40:52.013Z,27.67
2018-12-14T12:43:23.003Z,26.40
2018-12-14T12:45:53.641Z,40.23
2018-12-14T12:48:24.674Z,27.90
2018-12-14T12:50:55.622Z,29.35
2018-12-14T12:53:26.507Z,22.37
2018-12-14T12:55:57.640Z,29.92
2018-12-14T12:58:28.282Z,29.43
2018-12-14T13:00:58.801Z,26.80
2018-12-14T13:03:32.328Z,32.75
2018-12-14T13:06:03.017Z,29.17
2018-12-14T13:08:34.043Z,65.67
2018-12-14T13:11:05.076Z,51.23
2018-12-14T13:13:35.694Z,40.10
2018-12-14T13:16:06.566Z,44.63
2018-12-14T13:18:37.423Z,49.13
2018-12-14T13:21:08.089Z,32.80
2018-12-14T13:23:38.862Z,34.83
2018-12-14T13:26:09.707Z,37.73
2018-12-14T13:28:40.801Z,34.43
2018-12-14T13:31:11.510Z,41.83
2018-12-14T13:33:42.062Z,52.57
2018-12-14T13:36:12.652Z,62.20
2018-12-14T13:38:43.128Z,60.70
2018-12-14T13:41:13.753Z,50.60
2018-12-14T13:43:44.460Z,53.87
2018-12-14T13:46:15.104Z,41.10
2018-12-14T13:48:46.198Z,36.90
2018-12-14T13:51:17.106Z,47.40
2018-12-14T13:53:47.851Z,33.03
2018-12-14T13:56:18.460Z,55.53
2018-12-14T13:58:49.514Z,87.67
2018-12-14T14:01:20.105Z,71.93
2018-12-14T14:03:50.608Z,67.87
2018-12-14T14:06:21.026Z,37.83
2018-12-14T14:08:51.846Z,38.40
2018-12-14T14:11:22.835Z,45.97
2018-12-14T14:13:59.537Z,31.17
2018-12-14T14:16:30.670Z,22.67
2018-12-14T14:19:01.044Z,50.70
2018-12-14T14:21:34.671Z,26.70
2018-12-14T14:24:08.524Z,48.83
2018-12-14T14:26:44.526Z,48.33
2018-12-14T14:29:12.308Z,23.98
2018-12-14T14:31:43.212Z,37.47
2018-12-14T14:34:14.109Z,38.03
2018-12-14T14:36:45.224Z,24.90
2018-12-14T14:39:16.102Z,55.60
2018-12-14T14:41:47.302Z,37.87
2018-12-14T14:44:18.431Z,27.00
2018-12-14T14:46:49.226Z,27.13
2018-12-14T14:49:20.293Z,72.45
2018-12-14T14:51:50.965Z,46.58
2018-12-14T14:54:21.388Z,28.90
2018-12-14T14:56:52.005Z,49.90
2018-12-14T14:59:23.075Z,41.97
2018-12-14T15:01:53.710Z,68.47
2018-12-14T15:04:24.470Z,41.60
2018-12-14T15:06:55.173Z,47.60
2018-12-14T15:09:25.872Z,88.90
2018-12-14T15:11:56.762Z,54.43
2018-12-14T15:14:27.440Z,67.77
2018-12-14T15:16:58.228Z,67.83
2018-12-14T15:19:28.623Z,43.90
2018-12-14T15:22:04.582Z,36.23
2018-12-14T15:24:32.173Z,74.83
2018-12-14T15:27:02.537Z,41.23
2018-12-14T15:29:33.486Z,22.17
2018-12-14T15:32:04.256Z,27.47
2018-12-14T15:34:35.023Z,52.37
2018-12-14T15:37:05.750Z,39.98
2018-12-14T15:39:37.462Z,58.13
2018-12-14T15:42:08.165Z,41.53
2018-12-14T15:44:38.664Z,24.97
2018-12-14T15:47:09.356Z,20.87
2018-12-14T15:49:41.252Z,25.03
2018-12-14T15:52:11.549Z,66.43
2018-12-14T15:54:42.273Z,75.03
2018-12-14T15:57:12.784Z,88.87
2018-12-14T15:59:43.904Z,71.00
2018-12-14T16:02:14.809Z,76.33
2018-12-14T16:04:45.335Z,38.37
2018-12-14T16:07:35.903Z,20.73
2018-12-14T16:10:25.254Z,24.97
2018-12-14T16:13:13.324Z,29.80
2018-12-14T16:15:46.027Z,35.37
2018-12-14T16:18:16.709Z,29.10
2018-12-14T16:20:47.239Z,20.40
2018-12-14T16:23:17.974Z,18.90
2018-12-14T16:25:48.432Z,30.97
2018-12-14T16:28:19.305Z,20.57
2018-12-14T16:30:50.295Z,22.77
2018-12-14T16:33:21.000Z,28.97
2018-12-14T16:35:51.457Z,21.37
2018-12-14T16:38:22.107Z,18.30
2018-12-14T16:40:52.826Z,17.60
2018-12-14T16:43:23.497Z,20.03
2018-12-14T16:45:54.116Z,27.97
2018-12-14T16:48:24.826Z,76.43
2018-12-14T16:50:55.440Z,70.83
2018-12-14T16:53:26.106Z,40.03
2018-12-14T16:55:56.997Z,60.87
2018-12-14T16:58:27.626Z,74.63
2018-12-14T17:00:58.557Z,27.50
2018-12-14T17:03:29.244Z,36.47
2018-12-14T17:06:00.395Z,56.97
2018-12-14T17:08:31.004Z,36.97
2018-12-14T17:11:02.008Z,20.27
2018-12-14T17:13:33.133Z,22.07
2018-12-14T17:16:03.728Z,29.63
2018-12-14T17:18:34.986Z,49.17
2018-12-14T17:21:05.510Z,57.07
2018-12-14T17:23:36.178Z,48.53
2018-12-14T17:26:07.014Z,69.30
2018-12-14T17:28:37.782Z,35.10
2018-12-14T17:31:08.421Z,33.43
2018-12-14T17:33:39.820Z,73.10
2018-12-14T17:36:12.965Z,68.30
2018-12-14T17:38:43.992Z,22.30
2018-12-14T17:41:15.146Z,17.80
2018-12-14T17:43:45.986Z,19.00
2018-12-14T17:46:16.933Z,19.53
2018-12-14T17:48:47.836Z,52.90
2018-12-14T17:51:18.424Z,27.27
2018-12-14T17:53:49.292Z,48.83
2018-12-14T17:56:20.027Z,51.27
2018-12-14T17:58:51.270Z,55.63
2018-12-14T18:01:22.257Z,46.30
2018-12-14T18:03:53.197Z,44.47
2018-12-14T18:06:24.137Z,52.70
2018-12-14T18:08:55.303Z,59.60
2018-12-14T18:11:26.527Z,64.10
2018-12-14T18:13:57.219Z,43.00
2018-12-14T18:16:28.341Z,49.53
2018-12-14T18:18:59.206Z,55.60
2018-12-14T18:21:29.764Z,46.27
2018-12-14T18:24:00.335Z,27.40
2018-12-14T18:26:30.812Z,21.00
2018-12-14T18:29:01.797Z,19.83
2018-12-14T18:31:32.599Z,25.33
2018-12-14T18:34:04.617Z,21.33
2018-12-14T18:36:35.372Z,26.23
2018-12-14T18:39:08.116Z,39.07
2018-12-14T18:41:42.664Z,43.27
2018-12-14T18:44:17.787Z,24.43
2018-12-14T18:46:48.828Z,20.47
2018-12-14T18:49:19.541Z,24.93
2018-12-14T18:51:50.951Z,22.47
2018-12-14T18:54:23.295Z,25.60
2018-12-14T18:56:53.784Z,22.27
2018-12-14T18:59:24.958Z,20.77
2018-12-14T19:01:55.956Z,27.67
2018-12-14T19:04:26.945Z,29.47
2018-12-14T19:06:58.354Z,50.67
2018-12-14T19:09:30.690Z,35.87
2018-12-14T19:12:01.602Z,22.30
2018-12-14T19:14:33.504Z,20.17
2018-12-14T19:17:04.566Z,19.60
2018-12-14T19:19:35.550Z,38.77
2018-12-14T19:22:06.433Z,46.23
2018-12-14T19:24:37.142Z,22.80
2018-12-14T19:27:07.914Z,18.97
2018-12-14T19:29:38.490Z,21.00
2018-12-14T19:32:09.563Z,49.50
2018-12-14T19:34:40.499Z,24.93
2018-12-14T19:37:11.541Z,21.13
2018-12-14T19:39:42.022Z,55.47
2018-12-14T19:42:12.456Z,39.23
2018-12-14T19:44:42.966Z,21.47
2018-12-14T19:47:13.825Z,26.17
2018-12-14T19:49:44.635Z,29.50
2018-12-14T19:52:19.026Z,55.57
2018-12-14T19:54:50.857Z,51.87
2018-12-14T19:57:21.645Z,41.30
2018-12-14T19:59:52.556Z,43.50
2018-12-14T20:02:23.457Z,24.77
2018-12-14T20:04:54.275Z,17.80
2018-12-14T20:07:25.057Z,19.53
2018-12-14T20:09:55.985Z,24.33
2018-12-14T20:12:26.614Z,18.87
2018-12-14T20:14:57.859Z,43.30
2018-12-14T20:17:29.044Z,25.80
2018-12-14T20:20:00.304Z,19.90
2018-12-14T20:22:31.262Z,30.83
2018-12-14T20:25:02.480Z,26.13
2018-12-14T20:27:33.650Z,33.10
2018-12-14T20:30:08.446Z,19.53
2018-12-14T20:32:40.789Z,31.60
2018-12-14T20:35:11.590Z,24.07
2018-12-14T20:37:42.390Z,20.63
2018-12-14T20:40:13.066Z,22.07
2018-12-14T20:42:43.890Z,21.40
2018-12-14T20:45:14.390Z,20.77
2018-12-14T20:47:45.061Z,20.17
2018-12-14T20:50:15.559Z,20.87
2018-12-14T20:52:46.307Z,20.70
2018-12-14T20:55:17.194Z,20.70
2018-12-14T20:57:48.246Z,21.43
2018-12-14T21:00:19.339Z,23.60
2018-12-14T21:02:52.524Z,23.93
2018-12-14T21:05:23.771Z,22.90
2018-12-14T21:07:54.718Z,23.20
2018-12-14T21:10:25.292Z,22.03
2018-12-14T21:12:55.901Z,30.00
2018-12-14T21:15:26.579Z,26.10
2018-12-14T21:17:57.217Z,22.23
2018-12-14T21:20:27.998Z,21.13
2018-12-14T21:22:58.728Z,20.13
2018-12-14T21:25:29.501Z,19.43
2018-12-14T21:28:00.156Z,19.00
2018-12-14T21:30:30.866Z,20.40
2018-12-14T21:33:01.494Z,19.77
2018-12-14T21:35:32.266Z,36.53
2018-12-14T21:38:03.027Z,26.60
2018-12-14T21:40:33.845Z,21.50
2018-12-14T21:43:04.687Z,25.40
2018-12-14T21:45:35.742Z,23.90
2018-12-14T21:48:06.401Z,29.92
2018-12-14T21:50:36.991Z,39.00
2018-12-14T21:53:07.445Z,42.33
2018-12-14T21:55:38.312Z,20.10
2018-12-14T21:58:09.281Z,28.07
2018-12-14T22:00:39.989Z,35.37
2018-12-14T22:03:10.533Z,21.40
2018-12-14T22:05:41.224Z,27.77
2018-12-14T22:08:12.240Z,30.93
2018-12-14T22:10:42.621Z,32.63
2018-12-14T22:13:13.198Z,18.60
2018-12-14T22:15:43.821Z,18.73
2018-12-14T22:18:14.367Z,18.93
2018-12-14T22:20:45.126Z,18.53
2018-12-14T22:23:15.922Z,17.93
2018-12-14T22:25:46.506Z,17.47
2018-12-14T22:28:17.236Z,18.23
2018-12-14T22:30:47.968Z,17.83
2018-12-14T22:33:18.435Z,17.80
2018-12-14T22:35:49.430Z,18.53
2018-12-14T22:38:20.405Z,18.03
2018-12-14T22:40:51.842Z,19.20
2018-12-14T22:43:22.685Z,19.30
2018-12-14T22:45:54.172Z,18.60
2018-12-14T22:48:25.377Z,19.33
2018-12-14T22:50:56.628Z,19.90
2018-12-14T22:53:27.142Z,20.90
2018-12-14T22:55:58.261Z,22.17
2018-12-14T22:58:28.990Z,22.67
2018-12-14T23:00:59.678Z,22.87
2018-12-14T23:03:32.467Z,22.10
2018-12-14T23:06:02.788Z,22.20
2018-12-14T23:08:33.190Z,22.00
2018-12-14T23:11:03.908Z,22.10
2018-12-14T23:13:34.646Z,24.77
2018-12-14T23:16:05.277Z,21.83
2018-12-14T23:18:36.872Z,24.13
2018-12-14T23:21:07.496Z,21.77
2018-12-14T23:23:38.076Z,20.47
2018-12-14T23:26:09.822Z,20.27
2018-12-14T23:28:40.463Z,19.37
2018-12-14T23:31:11.082Z,19.00
2018-12-14T23:33:41.893Z,18.70
2018-12-14T23:36:12.423Z,17.27
2018-12-14T23:38:43.096Z,18.20
2018-12-14T23:41:13.626Z,19.07
2018-12-14T23:43:43.873Z,18.87
2018-12-14T23:46:14.359Z,18.60
2018-12-14T23:48:45.201Z,19.80
2018-12-14T23:51:15.872Z,19.47
2018-12-14T23:53:46.492Z,20.03
2018-12-14T23:56:17.153Z,23.13
2018-12-14T23:58:48.822Z,22.00
